x

Ilm2 - 5 Miles Se Of Wrightsville Beach, Nc (41038) Weather Station

6:08 - Sat 30th Jul 2016 All times are EDT. -4 hours from GMT.

  • Wind
    4mph, 7mph gusts
  • Sea Temp 80°f
  • Ar Temp 81°f
  • Sea Pressure 1014.7mb
  • Ilm2 - 5 Miles Se Of Wrightsville Beach, Nc
  • Ilm2 - 5 Miles Se Of Wrightsville Beach, Nc

More Historic Weather Station data

Upgrade to MSW Pro to gain access to the past 30 days of data for over 8000 Wavebouys and Weather Stations around the globe.

Join Pro

Comparision Forecast

View Surf forecast
   
Sáb 07/30 6:08 4 7 mph 1014.7mb 80f 81f
5:08 4 7 mph 1014.2mb 80f 81f
4:08 4 9 mph 1013.8mb 80f 81f
3:08 4 7 mph 1014.2mb 80f 82f
2:08 4 7 mph 1014.8mb 80f 81f
1:08 4 9 mph 1014.8mb 80f 81f
12:08 4 7 mph 1015.1mb 80f 81f
Sex 07/29 11:08 4 7 mph 1015.5mb 80f 81f
10:08 7 9 mph 1015.1mb 80f 82f
9:08 9 13 mph 1014.4mb 80f 82f
8:08 13 18 mph 1013.7mb 80f 83f
7:08 16 22 mph 1013.5mb 80f 84f
6:08 18 25 mph 1013.1mb 80f 84f
4:08 16 20 mph 1012.9mb 80f 83f
3:08 18 22 mph 1013.2mb 80f 83f
2:08 16 22 mph 1013.1mb 80f 84f
1:08 13 25 mph 1013.2mb 80f 84f
12:08 11 18 mph 1013.8mb 80f 86f
11:08 16 22 mph 1013.9mb 80f 86f
10:08 13 20 mph 1014.4mb 80f 85f
9:08 11 16 mph 1014.1mb 80f 83f
8:08 11 16 mph 1014.2mb 80f 82f
7:08 9 13 mph 1013.9mb 80f 81f
5:08 11 16 mph 1013.4mb 80f 82f
4:08 11 16 mph 1013.4mb 80f 82f
3:08 13 18 mph 1013.4mb 80f 82f
2:08 16 20 mph 1013.6mb 80f 83f
1:08 16 20 mph 1013.7mb 80f 83f
12:08 16 20 mph 1013.8mb 80f 83f
Qui 07/28 11:08 16 20 mph 1013.9mb 80f 83f
10:08 16 20 mph 1014.1mb 80f 83f
9:08 18 22 mph 1013.3mb 80f 83f
8:08 16 22 mph 1012.8mb 80f 83f
7:08 16 22 mph 1012.9mb 80f 84f
5:08 18 22 mph 1013mb 81f 84f
4:08 18 25 mph 1013.2mb 81f 84f
3:08 16 22 mph 1013.5mb 81f 84f
2:08 13 18 mph 1014.2mb 82f 85f
1:08 11 13 mph 1014.9mb 82f 84f
12:08 4 9 mph 1015.3mb 82f 85f
11:08 4 9 mph 1015.6mb 80f 83f
10:08 4 9 mph 1015.8mb 80f 84f
9:08 4 7 mph 1016mb 80f 83f
8:08 9 13 mph 1015.3mb 80f 82f
7:08 11 16 mph 1015mb 80f 81f
6:08 9 11 mph 1014.9mb 80f 81f
5:08 7 11 mph 1014.7mb 80f 81f
4:08 7 9 mph 1014.9mb 80f 81f
3:08 9 13 mph 1014.6mb 80f 81f
2:08 11 13 mph 1014.6mb 80f 81f
1:08 11 13 mph 1015.2mb 80f 81f
12:08 9 11 mph 1015.5mb 80f 81f
Qua 07/27 11:08 9 11 mph 1015.6mb 80f 81f
10:08 9 11 mph 1015.8mb 80f 82f
9:08 11 13 mph 1015.2mb 80f 82f
8:08 13 20 mph 1014.3mb 80f 82f
7:08 16 22 mph 1014.4mb 81f 84f
6:08 16 20 mph 1014.4mb 81f 84f
5:08 18 25 mph 1014mb 81f 84f
4:08 18 25 mph 1014.8mb 81f 84f
3:08 13 20 mph 1015.2mb 81f 84f
2:08 13 18 mph 1015.7mb 81f 84f
1:08 11 16 mph 1016.2mb 81f 84f
12:08 7 9 mph 1016.7mb 80f 85f
11:08 7 9 mph 1016.6mb 80f 84f
10:08 7 11 mph 1016.6mb 80f 83f
9:08 9 13 mph 1016.8mb 80f 82f
8:08 9 13 mph 1016.5mb 80f 81f
7:08 11 16 mph 1016.4mb 80f 81f
6:08 11 16 mph 1016.4mb 80f 81f
5:08 9 11 mph 1016.2mb 80f 81f
4:08 9 13 mph 1016.2mb 80f 81f
3:08 9 11 mph 1016.2mb 80f 81f
2:08 9 11 mph 1016.3mb 80f 81f
1:08 11 16 mph 1016.3mb 80f 82f
12:08 11 16 mph 1016.9mb 80f 82f
Ter 07/26 11:08 9 13 mph 1016.5mb 80f 81f
10:08 11 16 mph 1016.6mb 80f 81f
9:08 11 16 mph 1016.2mb 80f 82f
8:08 13 18 mph 1016.2mb 81f 82f
7:08 13 18 mph 1015.7mb 81f 83f
6:08 16 20 mph 1015.5mb 81f 83f
5:08 18 22 mph 1015.5mb 81f 83f
4:08 18 22 mph 1015.9mb 81f 83f
3:08 18 22 mph 1016.5mb 81f 83f
2:08 13 20 mph 1017.2mb 81f 83f
1:08 16 20 mph 1017.6mb 81f 83f
12:08 16 20 mph 1018.1mb 81f 82f